createdAt,value
2023-07-07T00:01:22.229Z,18.83
2023-07-07T00:03:51.288Z,18.93
2023-07-07T00:06:23.301Z,18.99
2023-07-07T00:08:51.695Z,19.09
2023-07-07T00:11:19.865Z,19.07
2023-07-07T00:13:49.508Z,19.10
2023-07-07T00:16:21.038Z,19.09
2023-07-07T00:18:49.458Z,19.09
2023-07-07T00:21:17.673Z,18.97
2023-07-07T00:23:46.989Z,19.02
2023-07-07T00:26:15.306Z,18.91
2023-07-07T00:28:43.485Z,19.02
2023-07-07T00:31:13.098Z,19.12
2023-07-07T00:33:41.414Z,19.16
2023-07-07T00:36:09.789Z,18.97
2023-07-07T00:38:38.391Z,18.88
2023-07-07T00:41:08.231Z,18.90
2023-07-07T00:43:41.200Z,19.04
2023-07-07T00:46:12.409Z,18.78
2023-07-07T00:48:44.627Z,18.83
2023-07-07T00:51:17.184Z,18.77
2023-07-07T00:53:49.029Z,18.79
2023-07-07T00:56:29.362Z,18.71
2023-07-07T00:59:04.282Z,18.77
2023-07-07T01:01:34.393Z,18.82
2023-07-07T01:04:05.880Z,18.75
2023-07-07T01:06:41.344Z,18.83
2023-07-07T01:09:11.113Z,18.73
2023-07-07T01:11:42.848Z,18.78
2023-07-07T01:14:14.269Z,18.78
2023-07-07T01:16:54.341Z,18.68
2023-07-07T01:19:51.258Z,18.77
2023-07-07T01:22:45.084Z,18.77
2023-07-07T01:25:26.059Z,18.83
2023-07-07T01:28:24.338Z,18.88
2023-07-07T01:30:58.229Z,18.93
2023-07-07T01:33:30.768Z,18.95
2023-07-07T01:35:59.233Z,18.71
2023-07-07T01:38:37.240Z,18.60
2023-07-07T01:41:17.653Z,18.64
2023-07-07T01:43:54.509Z,18.74
2023-07-07T01:46:33.146Z,18.88
2023-07-07T01:49:11.581Z,18.69
2023-07-07T01:51:50.762Z,18.84
2023-07-07T01:54:23.044Z,18.43
2023-07-07T01:56:53.181Z,18.82
2023-07-07T01:59:21.969Z,18.83
2023-07-07T02:01:52.106Z,18.89
2023-07-07T02:04:20.318Z,18.81
2023-07-07T02:06:48.768Z,18.56
2023-07-07T02:09:17.065Z,18.48
2023-07-07T02:11:45.258Z,18.59
2023-07-07T02:14:16.022Z,18.64
2023-07-07T02:16:47.172Z,18.79
2023-07-07T02:19:16.930Z,18.69
2023-07-07T02:21:45.329Z,18.71
2023-07-07T02:24:13.589Z,18.63
2023-07-07T02:26:43.583Z,18.86
2023-07-07T02:29:12.010Z,18.88
2023-07-07T02:31:40.126Z,18.65
2023-07-07T02:34:08.402Z,18.59
2023-07-07T02:36:38.056Z,18.78
2023-07-07T02:39:09.038Z,18.86
2023-07-07T02:41:37.120Z,18.90
2023-07-07T02:44:07.012Z,18.84
2023-07-07T02:46:35.191Z,18.79
2023-07-07T02:49:05.848Z,18.59
2023-07-07T02:51:36.309Z,18.76
2023-07-07T02:54:08.116Z,18.57
2023-07-07T02:56:39.503Z,18.71
2023-07-07T02:59:07.801Z,18.61
2023-07-07T03:01:37.898Z,18.80
2023-07-07T03:04:06.820Z,18.93
2023-07-07T03:06:35.093Z,18.90
2023-07-07T03:09:05.758Z,19.06
2023-07-07T03:11:38.397Z,18.90
2023-07-07T03:14:06.867Z,18.90
2023-07-07T03:16:36.880Z,18.97
2023-07-07T03:19:09.836Z,19.17
2023-07-07T03:21:41.218Z,18.91
2023-07-07T03:24:09.937Z,18.83
2023-07-07T03:26:39.608Z,19.03
2023-07-07T03:29:10.497Z,19.08
2023-07-07T03:31:41.734Z,19.24
2023-07-07T03:34:09.985Z,19.16
2023-07-07T03:36:41.010Z,19.07
2023-07-07T03:39:09.495Z,19.08
2023-07-07T03:41:40.490Z,19.04
2023-07-07T03:44:10.138Z,19.07
2023-07-07T03:46:41.265Z,18.94
2023-07-07T03:49:11.442Z,19.22
2023-07-07T03:51:42.266Z,19.20
2023-07-07T03:54:10.547Z,19.21
2023-07-07T03:56:38.983Z,19.12
2023-07-07T03:59:07.088Z,19.02
2023-07-07T04:01:36.906Z,18.98
2023-07-07T04:04:05.392Z,19.00
2023-07-07T04:06:34.661Z,19.00
2023-07-07T04:09:02.862Z,18.78
2023-07-07T04:11:33.010Z,18.57
2023-07-07T04:14:04.178Z,18.88
2023-07-07T04:16:32.611Z,18.58
2023-07-07T04:19:02.220Z,18.69
2023-07-07T04:21:35.540Z,18.82
2023-07-07T04:24:04.988Z,18.77
2023-07-07T04:26:33.989Z,18.62
2023-07-07T04:29:03.119Z,19.10
2023-07-07T04:31:32.384Z,19.25
2023-07-07T04:34:02.447Z,19.44
2023-07-07T04:36:33.041Z,19.44
2023-07-07T04:39:01.434Z,19.28
2023-07-07T04:41:29.631Z,19.14
2023-07-07T04:43:59.294Z,19.23
2023-07-07T04:46:29.457Z,19.41
2023-07-07T04:48:57.804Z,19.09
2023-07-07T04:51:27.394Z,19.01
2023-07-07T04:53:55.721Z,18.75
2023-07-07T04:56:26.944Z,18.89
2023-07-07T04:58:57.740Z,19.16
2023-07-07T05:01:28.511Z,18.82
2023-07-07T05:04:07.773Z,18.86
2023-07-07T05:06:39.618Z,19.30
2023-07-07T05:09:09.968Z,19.48
2023-07-07T05:11:39.427Z,19.46
2023-07-07T05:14:07.792Z,18.92
2023-07-07T05:16:38.454Z,18.99
2023-07-07T05:19:07.216Z,19.17
2023-07-07T05:21:38.412Z,19.27
2023-07-07T05:24:08.226Z,19.41
2023-07-07T05:26:36.412Z,19.35
2023-07-07T05:29:07.262Z,19.23
2023-07-07T05:31:36.873Z,19.06
2023-07-07T05:34:07.369Z,19.33
2023-07-07T05:36:38.581Z,19.44
2023-07-07T05:39:08.211Z,19.48
2023-07-07T05:41:39.070Z,19.65
2023-07-07T05:44:07.231Z,19.83
2023-07-07T05:46:35.576Z,19.77
2023-07-07T05:49:06.632Z,19.65
2023-07-07T05:51:34.953Z,19.53
2023-07-07T05:54:07.184Z,19.14
2023-07-07T05:56:37.473Z,19.70
2023-07-07T05:59:07.712Z,19.71
2023-07-07T06:01:39.909Z,19.68
2023-07-07T06:04:08.376Z,19.98
2023-07-07T06:06:36.697Z,19.87
2023-07-07T06:09:07.628Z,19.61
2023-07-07T06:11:37.207Z,19.57
2023-07-07T06:14:05.547Z,19.76
2023-07-07T06:16:34.023Z,19.88
2023-07-07T06:19:05.050Z,19.73
2023-07-07T06:21:33.151Z,19.44
2023-07-07T06:24:01.457Z,19.85
2023-07-07T06:26:30.035Z,20.05
2023-07-07T06:29:01.882Z,19.73
2023-07-07T06:31:30.307Z,19.94
2023-07-07T06:33:58.473Z,19.97
2023-07-07T06:36:29.430Z,19.86
2023-07-07T06:39:01.048Z,20.09
2023-07-07T06:41:29.649Z,20.02
2023-07-07T06:43:59.181Z,19.78
2023-07-07T06:46:28.835Z,20.07
2023-07-07T06:48:58.184Z,20.16
2023-07-07T06:51:26.258Z,20.16
2023-07-07T06:53:54.378Z,20.26
2023-07-07T06:56:22.546Z,20.34
2023-07-07T06:58:51.067Z,20.06
2023-07-07T07:01:23.486Z,19.83
2023-07-07T07:03:52.399Z,20.03
2023-07-07T07:06:20.575Z,20.09
2023-07-07T07:08:50.949Z,20.32
2023-07-07T07:11:19.295Z,20.34
2023-07-07T07:13:48.508Z,20.60
2023-07-07T07:16:16.735Z,20.61
2023-07-07T07:18:46.485Z,20.43
2023-07-07T07:21:15.457Z,20.75
2023-07-07T07:23:43.989Z,20.70
2023-07-07T07:26:15.541Z,20.65
2023-07-07T07:28:43.750Z,20.83
2023-07-07T07:31:13.792Z,21.13
2023-07-07T07:33:42.114Z,21.19
2023-07-07T07:36:12.071Z,20.98
2023-07-07T07:38:40.327Z,20.98
2023-07-07T07:41:08.714Z,21.28
2023-07-07T07:43:36.949Z,21.72
2023-07-07T07:46:05.062Z,21.02
2023-07-07T07:48:35.768Z,22.21
2023-07-07T07:51:13.770Z,22.80
2023-07-07T07:53:56.769Z,23.23
2023-07-07T07:56:25.016Z,23.94
2023-07-07T07:58:55.297Z,24.35
2023-07-07T08:01:26.003Z,23.72
2023-07-07T08:03:54.585Z,23.75
2023-07-07T08:06:22.834Z,23.73
2023-07-07T08:08:51.170Z,23.10
2023-07-07T08:11:30.413Z,23.71
2023-07-07T08:13:59.265Z,24.31
2023-07-07T08:16:27.745Z,24.55
2023-07-07T08:18:56.173Z,24.62
2023-07-07T08:21:26.195Z,24.01
2023-07-07T08:23:57.172Z,23.99
2023-07-07T08:26:27.235Z,23.64
2023-07-07T08:28:55.536Z,23.08
2023-07-07T08:31:29.257Z,23.15
2023-07-07T08:33:59.803Z,23.49
2023-07-07T08:36:30.538Z,24.06
2023-07-07T08:39:02.968Z,23.87
2023-07-07T08:41:32.630Z,23.12
2023-07-07T08:44:00.835Z,22.67
2023-07-07T08:46:41.818Z,23.37
2023-07-07T08:49:16.433Z,22.79
2023-07-07T08:51:49.755Z,23.10
2023-07-07T08:54:40.180Z,23.32
2023-07-07T08:57:15.625Z,23.32
2023-07-07T08:59:54.958Z,23.40
2023-07-07T09:02:41.341Z,23.75
2023-07-07T09:05:21.954Z,23.37
2023-07-07T09:08:08.922Z,23.20
2023-07-07T09:10:48.807Z,23.60
2023-07-07T09:13:28.970Z,22.94
2023-07-07T09:16:04.087Z,23.39
2023-07-07T09:18:37.557Z,23.12
2023-07-07T09:21:13.325Z,23.71
2023-07-07T09:23:42.758Z,22.32
2023-07-07T09:26:20.568Z,22.98
2023-07-07T09:28:55.699Z,22.75
2023-07-07T09:31:32.364Z,23.04
2023-07-07T09:34:04.049Z,23.28
2023-07-07T09:36:38.237Z,23.09
2023-07-07T09:39:21.829Z,23.33
2023-07-07T09:42:00.871Z,23.37
2023-07-07T09:44:55.811Z,23.45
2023-07-07T09:47:32.500Z,23.71
2023-07-07T09:50:07.083Z,23.33
2023-07-07T09:52:48.042Z,23.08
2023-07-07T09:55:20.796Z,23.46
2023-07-07T09:58:03.954Z,23.19
2023-07-07T10:00:45.400Z,22.93
2023-07-07T10:03:24.253Z,23.17
2023-07-07T10:05:57.642Z,23.48
2023-07-07T10:08:25.977Z,23.61
2023-07-07T10:13:51.916Z,23.11
2023-07-07T10:16:35.206Z,23.20
2023-07-07T10:19:06.989Z,22.76
2023-07-07T10:21:35.871Z,22.19
2023-07-07T10:26:53.570Z,22.52
2023-07-07T10:29:24.784Z,22.88
2023-07-07T10:31:55.055Z,22.86
2023-07-07T10:34:29.504Z,23.26
2023-07-07T10:36:59.020Z,23.49
2023-07-07T10:39:29.557Z,23.67
2023-07-07T10:41:58.760Z,23.72
2023-07-07T10:44:28.380Z,23.55
2023-07-07T10:46:57.883Z,23.34
2023-07-07T10:55:11.839Z,23.11
2023-07-07T10:57:50.321Z,23.13
2023-07-07T11:00:38.173Z,22.64
2023-07-07T11:03:35.910Z,22.32
2023-07-07T11:06:10.732Z,22.60
2023-07-07T11:08:47.023Z,22.56
2023-07-07T11:11:26.229Z,22.57
2023-07-07T11:14:09.620Z,22.90
2023-07-07T11:16:45.840Z,23.00
2023-07-07T11:19:30.136Z,22.88
2023-07-07T11:22:09.545Z,23.13
2023-07-07T11:27:44.512Z,22.83
2023-07-07T11:30:23.610Z,23.02
2023-07-07T11:33:04.026Z,23.36
2023-07-07T11:35:48.532Z,23.27
2023-07-07T11:38:35.269Z,23.07
2023-07-07T11:41:15.619Z,23.13
2023-07-07T11:44:13.317Z,22.70
2023-07-07T11:47:01.008Z,22.86
2023-07-07T11:49:44.216Z,22.77
2023-07-07T11:52:36.243Z,22.56
2023-07-07T11:55:32.855Z,23.02
2023-07-07T11:58:16.668Z,22.73
2023-07-07T12:00:53.957Z,22.80
2023-07-07T12:03:36.077Z,22.88
2023-07-07T12:06:10.861Z,22.91
2023-07-07T12:08:46.469Z,23.17
2023-07-07T12:11:16.197Z,22.84
2023-07-07T12:14:01.964Z,23.13
2023-07-07T12:16:32.784Z,22.90
2023-07-07T12:19:21.617Z,22.58
2023-07-07T12:21:54.505Z,22.83
2023-07-07T12:24:30.954Z,23.01
2023-07-07T12:27:10.207Z,22.79
2023-07-07T12:29:42.850Z,22.86
2023-07-07T12:32:15.005Z,23.29
2023-07-07T12:34:46.205Z,23.22
2023-07-07T12:37:17.871Z,23.65
2023-07-07T12:39:56.503Z,23.58
2023-07-07T12:42:26.493Z,23.43
2023-07-07T12:44:54.819Z,23.39
2023-07-07T12:47:35.204Z,23.54
2023-07-07T12:50:05.762Z,23.51
2023-07-07T12:52:42.611Z,23.87
2023-07-07T12:55:37.458Z,23.77
2023-07-07T12:58:32.825Z,23.42
2023-07-07T13:01:12.415Z,23.37
2023-07-07T13:04:00.902Z,23.57
2023-07-07T13:06:37.505Z,23.95
2023-07-07T13:09:20.871Z,23.79
2023-07-07T13:11:52.685Z,23.73
2023-07-07T13:14:45.161Z,23.98
2023-07-07T13:17:19.315Z,23.78
2023-07-07T13:19:51.451Z,23.92
2023-07-07T13:22:25.643Z,23.77
2023-07-07T13:24:58.781Z,23.91
2023-07-07T13:27:30.807Z,24.19
2023-07-07T13:30:02.116Z,23.95
2023-07-07T13:32:34.475Z,23.62
2023-07-07T13:35:05.232Z,23.98
2023-07-07T13:37:34.911Z,24.49
2023-07-07T13:40:04.553Z,24.23
2023-07-07T13:42:38.244Z,24.23
2023-07-07T13:45:09.473Z,24.01
2023-07-07T13:47:42.850Z,24.60
2023-07-07T13:50:16.428Z,24.10
2023-07-07T13:52:47.538Z,23.85
2023-07-07T13:55:18.326Z,24.09
2023-07-07T13:57:48.601Z,23.81
2023-07-07T14:00:32.603Z,23.89
2023-07-07T14:03:02.197Z,24.05
2023-07-07T14:05:34.321Z,23.93
2023-07-07T14:08:09.224Z,24.05
2023-07-07T14:10:40.293Z,23.93
2023-07-07T14:13:23.558Z,23.97
2023-07-07T14:16:00.128Z,24.52
2023-07-07T14:18:35.056Z,24.79
2023-07-07T14:21:07.011Z,24.65
2023-07-07T14:23:35.654Z,24.44
2023-07-07T14:26:04.142Z,24.18
2023-07-07T14:28:37.578Z,24.20
2023-07-07T14:31:10.557Z,23.82
2023-07-07T14:33:43.042Z,23.78
2023-07-07T14:36:19.850Z,23.94
2023-07-07T14:38:53.011Z,23.93
2023-07-07T14:41:22.433Z,23.96
2023-07-07T14:43:53.239Z,24.10
2023-07-07T14:46:26.339Z,24.65
2023-07-07T14:48:56.667Z,24.46
2023-07-07T14:51:28.217Z,24.68
2023-07-07T14:53:58.488Z,24.26
2023-07-07T14:56:33.261Z,24.38
2023-07-07T14:59:05.321Z,24.12
2023-07-07T15:01:36.141Z,24.03
2023-07-07T15:04:14.302Z,24.23
2023-07-07T15:06:50.435Z,24.16
2023-07-07T15:09:19.256Z,24.02
2023-07-07T15:11:50.041Z,23.97
2023-07-07T15:14:19.782Z,23.64
2023-07-07T15:16:48.892Z,24.02
2023-07-07T15:19:18.698Z,24.55
2023-07-07T15:21:47.822Z,24.16
2023-07-07T15:24:16.752Z,23.80
2023-07-07T15:26:45.843Z,23.93
2023-07-07T15:29:17.420Z,23.53
2023-07-07T15:31:50.764Z,23.86
2023-07-07T15:34:19.917Z,24.32
2023-07-07T15:36:48.354Z,24.00
2023-07-07T15:39:16.592Z,24.30
2023-07-07T15:41:44.945Z,24.65
2023-07-07T15:44:13.276Z,24.35
2023-07-07T15:46:48.628Z,24.43
2023-07-07T15:49:21.374Z,24.57
2023-07-07T15:51:49.818Z,24.70
2023-07-07T15:54:18.453Z,24.79
2023-07-07T15:56:49.831Z,24.66
2023-07-07T15:59:19.757Z,24.54
2023-07-07T16:01:48.571Z,24.42
2023-07-07T16:04:18.421Z,23.96
2023-07-07T16:06:48.065Z,24.10
2023-07-07T16:09:17.764Z,24.48
2023-07-07T16:11:46.672Z,24.27
2023-07-07T16:14:16.821Z,24.75
2023-07-07T16:16:46.877Z,24.29
2023-07-07T16:19:16.732Z,24.00
2023-07-07T16:21:46.639Z,24.13
2023-07-07T16:24:16.193Z,24.25
2023-07-07T16:26:48.056Z,24.17
2023-07-07T16:29:18.077Z,24.35
2023-07-07T16:31:47.111Z,24.37
2023-07-07T16:34:15.696Z,23.87
2023-07-07T16:36:44.328Z,23.39
2023-07-07T16:39:17.550Z,24.03
2023-07-07T16:41:48.410Z,24.32
2023-07-07T16:44:17.398Z,23.97
2023-07-07T16:46:46.534Z,23.70
2023-07-07T16:49:16.382Z,23.35
2023-07-07T16:51:45.301Z,23.61
2023-07-07T16:54:14.962Z,24.05
2023-07-07T16:56:44.424Z,24.17
2023-07-07T16:59:14.520Z,24.18
2023-07-07T17:01:45.734Z,24.34
2023-07-07T17:04:18.768Z,23.98
2023-07-07T17:06:47.509Z,23.85
2023-07-07T17:09:19.506Z,24.08
2023-07-07T17:11:48.020Z,24.14
2023-07-07T17:14:16.529Z,24.13
2023-07-07T17:16:44.777Z,24.08
2023-07-07T17:19:17.714Z,24.03
2023-07-07T17:21:45.971Z,24.00
2023-07-07T17:24:14.204Z,24.07
2023-07-07T17:26:44.492Z,23.74
2023-07-07T17:29:15.177Z,23.32
2023-07-07T17:31:43.734Z,22.73
2023-07-07T17:34:13.736Z,22.95
2023-07-07T17:36:42.933Z,23.16
2023-07-07T17:39:14.392Z,23.45
2023-07-07T17:41:44.791Z,23.61
2023-07-07T17:44:13.397Z,23.65
2023-07-07T17:46:43.197Z,23.61
2023-07-07T17:49:15.432Z,23.60
2023-07-07T17:51:44.389Z,23.10
2023-07-07T17:54:13.042Z,22.77
2023-07-07T17:56:43.616Z,23.34
2023-07-07T17:59:19.387Z,23.55
2023-07-07T18:01:47.742Z,23.56
2023-07-07T18:04:16.308Z,23.65
2023-07-07T18:06:49.965Z,23.54
2023-07-07T18:09:18.871Z,23.35
2023-07-07T18:11:51.275Z,23.36
2023-07-07T18:14:22.417Z,23.13
2023-07-07T18:16:58.568Z,22.98
2023-07-07T18:20:22.617Z,23.17
2023-07-07T18:22:28.742Z,23.09
2023-07-07T18:24:57.054Z,23.22
2023-07-07T18:27:26.614Z,23.05
2023-07-07T18:29:54.785Z,23.03
2023-07-07T18:32:23.147Z,23.00
2023-07-07T18:34:51.506Z,23.00
2023-07-07T18:37:19.604Z,23.00
2023-07-07T18:39:48.995Z,22.78
2023-07-07T18:42:17.863Z,22.75
2023-07-07T18:44:49.761Z,22.83
2023-07-07T18:47:18.595Z,22.78
2023-07-07T18:49:46.912Z,22.87
2023-07-07T18:52:15.434Z,22.95
2023-07-07T18:54:44.444Z,22.99
2023-07-07T18:57:12.994Z,22.96
2023-07-07T18:59:41.106Z,22.89
2023-07-07T19:02:16.245Z,22.96
2023-07-07T19:04:47.419Z,22.95
2023-07-07T19:07:17.726Z,22.95
2023-07-07T19:09:50.731Z,23.07
2023-07-07T19:12:19.150Z,22.88
2023-07-07T19:14:47.290Z,22.92
2023-07-07T19:17:17.460Z,22.97
2023-07-07T19:19:46.068Z,22.89
2023-07-07T19:22:14.608Z,22.92
2023-07-07T19:24:42.922Z,23.02
2023-07-07T19:27:15.684Z,23.06
2023-07-07T19:29:44.026Z,23.06
2023-07-07T19:32:17.569Z,22.95
2023-07-07T19:34:46.125Z,22.99
2023-07-07T19:37:14.425Z,22.87
2023-07-07T19:39:46.871Z,22.70
2023-07-07T19:42:15.545Z,22.53
2023-07-07T19:44:45.700Z,22.52
2023-07-07T19:47:15.769Z,22.51
2023-07-07T19:49:45.861Z,22.57
2023-07-07T19:52:17.902Z,22.52
2023-07-07T19:54:47.270Z,22.54
2023-07-07T19:57:20.598Z,22.54
2023-07-07T19:59:49.230Z,22.59
2023-07-07T20:02:19.065Z,22.63
2023-07-07T20:04:49.609Z,22.68
2023-07-07T20:07:18.333Z,22.69
2023-07-07T20:09:46.701Z,22.64
2023-07-07T20:12:18.431Z,22.59
2023-07-07T20:14:49.861Z,22.62
2023-07-07T20:17:18.132Z,22.54
2023-07-07T20:19:46.547Z,22.59
2023-07-07T20:22:16.456Z,22.61
2023-07-07T20:24:44.811Z,22.40
2023-07-07T20:27:14.194Z,22.49
2023-07-07T20:29:45.316Z,22.46
2023-07-07T20:32:15.362Z,22.49
2023-07-07T20:34:43.762Z,22.66
2023-07-07T20:37:13.839Z,22.61
2023-07-07T20:39:43.625Z,22.62
2023-07-07T20:42:13.990Z,22.32
2023-07-07T20:44:43.162Z,22.37
2023-07-07T20:47:13.592Z,22.23
2023-07-07T20:49:41.942Z,22.36
2023-07-07T20:52:14.185Z,22.45
2023-07-07T20:54:43.666Z,22.62
2023-07-07T20:57:18.953Z,22.45
2023-07-07T20:59:48.319Z,22.43
2023-07-07T21:02:16.579Z,22.38
2023-07-07T21:04:44.735Z,22.24
2023-07-07T21:07:14.468Z,21.90
2023-07-07T21:09:43.999Z,22.10
2023-07-07T21:12:14.824Z,22.28
2023-07-07T21:14:42.968Z,22.31
2023-07-07T21:17:16.622Z,22.20
2023-07-07T21:19:44.874Z,22.17
2023-07-07T21:22:13.405Z,22.17
2023-07-07T21:24:41.704Z,22.05
2023-07-07T21:27:12.165Z,21.75
2023-07-07T21:29:44.319Z,21.82
2023-07-07T21:32:13.607Z,21.98
2023-07-07T21:34:42.568Z,21.97
2023-07-07T21:37:14.116Z,22.01
2023-07-07T21:39:42.673Z,22.04
2023-07-07T21:42:13.972Z,21.71
2023-07-07T21:44:45.345Z,21.77
2023-07-07T21:47:15.921Z,21.78
2023-07-07T21:49:45.160Z,21.98
2023-07-07T21:52:16.140Z,21.88
2023-07-07T21:54:44.697Z,21.84
2023-07-07T21:57:37.033Z,21.89
2023-07-07T22:00:13.333Z,21.87
2023-07-07T22:02:41.677Z,21.80
2023-07-07T22:05:12.121Z,21.86
2023-07-07T22:07:40.349Z,21.96
2023-07-07T22:10:29.788Z,22.00
2023-07-07T22:12:59.510Z,21.85
2023-07-07T22:15:27.704Z,21.87
2023-07-07T22:17:56.260Z,21.82
2023-07-07T22:20:33.859Z,21.92
2023-07-07T22:23:03.756Z,21.92
2023-07-07T22:25:34.848Z,21.88
2023-07-07T22:28:11.899Z,21.78
2023-07-07T22:30:44.487Z,21.69
2023-07-07T22:33:13.932Z,21.75
2023-07-07T22:35:42.325Z,21.67
2023-07-07T22:38:17.084Z,21.73
2023-07-07T22:40:47.196Z,21.75
2023-07-07T22:43:18.183Z,21.73
2023-07-07T22:45:50.693Z,21.63
2023-07-07T22:48:21.373Z,21.47
2023-07-07T22:50:50.305Z,21.57
2023-07-07T22:53:21.393Z,21.77
2023-07-07T22:55:50.233Z,21.80
2023-07-07T22:58:22.428Z,21.71
2023-07-07T23:00:51.197Z,21.62
2023-07-07T23:03:19.519Z,21.66
2023-07-07T23:05:48.841Z,21.61
2023-07-07T23:08:19.327Z,21.56
2023-07-07T23:10:47.857Z,21.50
2023-07-07T23:13:16.118Z,21.37
2023-07-07T23:15:46.000Z,21.38
2023-07-07T23:18:17.392Z,21.39
2023-07-07T23:20:45.785Z,21.26
2023-07-07T23:23:22.043Z,21.29
2023-07-07T23:25:58.125Z,21.33
2023-07-07T23:28:29.347Z,21.33
2023-07-07T23:31:06.943Z,21.37
2023-07-07T23:33:37.316Z,21.21
2023-07-07T23:36:17.280Z,21.32
2023-07-07T23:38:45.754Z,21.28
2023-07-07T23:41:15.401Z,21.14
2023-07-07T23:43:43.598Z,21.08
2023-07-07T23:46:16.277Z,21.13
2023-07-07T23:48:45.024Z,21.16
2023-07-07T23:51:14.655Z,21.12
2023-07-07T23:53:43.581Z,21.11
2023-07-07T23:56:17.264Z,21.15
2023-07-07T23:58:45.622Z,21.14
